Time,TemperatureF,DewpointF,PressureIn,WindDirection,WindDirectionDegrees,WindSpeedMPH,WindSpeedGustMPH,Humidity,HourlyPrecipIn,Conditions,Clouds,dailyrainin,SoftwareType,DateUTC
2013-11-23 00:01:00,51.7,43.3,30.07,WNW,286,4.0,9.0,73,0.00,,,0.00,Wunderground v.1.15,2013-11-23 05:01:00,
2013-11-23 00:02:00,51.7,43.3,30.08,NW,307,5.0,9.0,73,0.00,,,0.00,Wunderground v.1.15,2013-11-23 05:02:00,
2013-11-23 00:04:00,51.6,43.2,30.08,NW,317,4.0,9.0,73,0.00,,,0.00,Wunderground v.1.15,2013-11-23 05:04:00,
2013-11-23 00:05:00,51.6,43.2,30.08,West,272,4.0,9.0,73,0.00,,,0.00,Wunderground v.1.15,2013-11-23 05:05:00,
2013-11-23 00:09:00,51.6,43.2,30.08,NNW,327,5.0,9.0,73,0.00,,,0.00,Wunderground v.1.15,2013-11-23 05:09:00,
2013-11-23 00:14:00,51.4,43.0,30.08,North,355,5.0,7.0,73,0.00,,,0.00,Wunderground v.1.15,2013-11-23 05:14:00,
2013-11-23 00:23:00,51.3,42.9,30.08,WNW,301,4.0,4.0,73,0.00,,,0.00,Wunderground v.1.15,2013-11-23 05:23:00,
2013-11-23 00:28:00,51.1,43.1,30.09,NW,309,3.0,5.0,74,0.00,,,0.00,Wunderground v.1.15,2013-11-23 05:28:00,
2013-11-23 00:36:00,50.3,42.3,30.09,NW,314,6.0,6.0,74,0.00,,,0.00,Wunderground v.1.15,2013-11-23 05:36:00,
2013-11-23 00:49:00,49.4,42.1,30.09,NW,326,4.0,4.0,76,0.00,,,0.00,Wunderground v.1.15,2013-11-23 05:49:00,
2013-11-23 00:55:00,48.1,40.9,30.10,WNW,290,4.0,5.0,76,0.00,,,0.00,Wunderground v.1.15,2013-11-23 05:55:00,
2013-11-23 01:01:00,47.4,40.6,30.10,WNW,299,4.0,4.0,77,0.00,,,0.00,Wunderground v.1.15,2013-11-23 06:01:00,
2013-11-23 01:08:00,47.0,40.5,30.11,WNW,293,4.0,5.0,78,0.00,,,0.00,Wunderground v.1.15,2013-11-23 06:08:00,
2013-11-23 01:14:00,46.8,40.3,30.11,NW,312,4.0,6.0,78,0.00,,,0.00,Wunderground v.1.15,2013-11-23 06:14:00,
2013-11-23 01:20:00,46.7,39.9,30.11,WNW,288,4.0,5.0,77,0.00,,,0.00,Wunderground v.1.15,2013-11-23 06:20:00,
2013-11-23 01:25:00,46.7,39.5,30.11,NW,314,3.0,6.0,76,0.00,,,0.00,Wunderground v.1.15,2013-11-23 06:25:00,
2013-11-23 01:31:00,46.7,39.5,30.11,WNW,298,3.0,3.0,76,0.00,,,0.00,Wunderground v.1.15,2013-11-23 06:31:00,
2013-11-23 01:36:00,46.7,39.2,30.12,WNW,288,3.0,4.0,75,0.00,,,0.00,Wunderground v.1.15,2013-11-23 06:36:00,
2013-11-23 01:42:00,46.6,38.8,30.11,NW,313,3.0,3.0,74,0.00,,,0.00,Wunderground v.1.15,2013-11-23 06:42:00,
2013-11-23 01:50:00,46.6,38.4,30.12,WNW,300,2.0,6.0,73,0.00,,,0.00,Wunderground v.1.15,2013-11-23 06:50:00,
2013-11-23 01:55:00,46.5,37.6,30.11,NW,326,3.0,4.0,71,0.00,,,0.00,Wunderground v.1.15,2013-11-23 06:55:00,
2013-11-23 02:01:00,46.4,37.1,30.12,NW,326,4.0,4.0,70,0.00,,,0.00,Wunderground v.1.15,2013-11-23 07:01:00,
2013-11-23 02:06:00,46.3,37.0,30.12,NW,319,4.0,5.0,70,0.00,,,0.00,Wunderground v.1.15,2013-11-23 07:06:00,
2013-11-23 02:12:00,46.1,36.9,30.12,NW,325,3.0,3.0,70,0.00,,,0.00,Wunderground v.1.15,2013-11-23 07:12:00,
2013-11-23 02:19:00,45.9,37.0,30.13,NW,316,3.0,4.0,71,0.00,,,0.00,Wunderground v.1.15,2013-11-23 07:19:00,
2013-11-23 02:25:00,45.8,36.9,30.13,NNW,345,3.0,5.0,71,0.00,,,0.00,Wunderground v.1.15,2013-11-23 07:25:00,
2013-11-23 02:31:00,45.6,36.7,30.13,WNW,294,4.0,4.0,71,0.00,,,0.00,Wunderground v.1.15,2013-11-23 07:31:00,
2013-11-23 02:36:00,45.5,37.0,30.13,WNW,292,3.0,4.0,72,0.00,,,0.00,Wunderground v.1.15,2013-11-23 07:36:00,
2013-11-23 02:41:00,45.2,36.7,30.13,NW,312,3.0,4.0,72,0.00,,,0.00,Wunderground v.1.15,2013-11-23 07:41:00,
2013-11-23 02:46:00,45.1,36.6,30.13,NW,320,3.0,4.0,72,0.00,,,0.00,Wunderground v.1.15,2013-11-23 07:46:00,
2013-11-23 02:51:00,44.4,35.9,30.12,NW,306,2.0,2.0,72,0.00,,,0.00,Wunderground v.1.15,2013-11-23 07:51:00,
2013-11-23 02:56:00,44.0,36.2,30.13,NW,314,1.0,4.0,74,0.00,,,0.00,Wunderground v.1.15,2013-11-23 07:56:00,
2013-11-23 03:02:00,43.9,36.1,30.13,NNW,335,1.0,2.0,74,0.00,,,0.00,Wunderground v.1.15,2013-11-23 08:02:00,
2013-11-23 03:09:00,43.6,35.9,30.13,NW,311,1.0,2.0,74,0.00,,,0.00,Wunderground v.1.15,2013-11-23 08:09:00,
2013-11-23 03:16:00,42.6,35.2,30.13,NW,310,1.0,4.0,75,0.00,,,0.00,Wunderground v.1.15,2013-11-23 08:16:00,
2013-11-23 03:21:00,42.4,35.0,30.13,WNW,293,1.0,4.0,75,0.00,,,0.00,Wunderground v.1.15,2013-11-23 08:21:00,
2013-11-23 03:27:00,42.4,35.0,30.13,WNW,303,2.0,4.0,75,0.00,,,0.00,Wunderground v.1.15,2013-11-23 08:27:00,
2013-11-23 03:36:00,42.7,35.3,30.13,WNW,288,2.0,5.0,75,0.00,,,0.00,Wunderground v.1.15,2013-11-23 08:36:00,
2013-11-23 03:41:00,42.5,35.1,30.14,WNW,288,2.0,2.0,75,0.00,,,0.00,Wunderground v.1.15,2013-11-23 08:41:00,
2013-11-23 03:46:00,42.2,35.2,30.14,WNW,288,1.0,2.0,76,0.00,,,0.00,Wunderground v.1.15,2013-11-23 08:46:00,
2013-11-23 03:51:00,41.6,34.9,30.14,WNW,288,1.0,1.0,77,0.00,,,0.00,Wunderground v.1.15,2013-11-23 08:51:00,
2013-11-23 03:57:00,41.0,34.3,30.14,WNW,288,1.0,4.0,77,0.00,,,0.00,Wunderground v.1.15,2013-11-23 08:57:00,
2013-11-23 04:02:00,41.4,34.1,30.14,WNW,293,2.0,4.0,75,0.00,,,0.00,Wunderground v.1.15,2013-11-23 09:02:00,
2013-11-23 04:09:00,41.7,33.0,30.14,West,271,5.0,10.0,71,0.00,,,0.00,Wunderground v.1.15,2013-11-23 09:09:00,
2013-11-23 04:16:00,40.9,32.6,30.14,WNW,296,5.0,10.0,72,0.00,,,0.00,Wunderground v.1.15,2013-11-23 09:16:00,
2013-11-23 04:22:00,40.5,32.2,30.15,WNW,300,3.0,3.0,72,0.00,,,0.00,Wunderground v.1.15,2013-11-23 09:22:00,
2013-11-23 04:27:00,40.4,32.1,30.15,WNW,295,3.0,6.0,72,0.00,,,0.00,Wunderground v.1.15,2013-11-23 09:27:00,
2013-11-23 04:34:00,40.1,31.8,30.15,WNW,291,3.0,6.0,72,0.00,,,0.00,Wunderground v.1.15,2013-11-23 09:34:00,
2013-11-23 04:39:00,39.8,31.5,30.15,WNW,302,4.0,7.0,72,0.00,,,0.00,Wunderground v.1.15,2013-11-23 09:39:00,
2013-11-23 04:46:00,39.7,31.4,30.15,WNW,296,4.0,4.0,72,0.00,,,0.00,Wunderground v.1.15,2013-11-23 09:46:00,
2013-11-23 04:52:00,39.6,31.3,30.14,WNW,296,4.0,8.0,72,0.00,,,0.00,Wunderground v.1.15,2013-11-23 09:52:00,
2013-11-23 04:58:00,39.3,31.0,30.14,NW,308,5.0,8.0,72,0.00,,,0.00,Wunderground v.1.15,2013-11-23 09:58:00,
2013-11-23 05:04:00,38.9,30.6,30.14,WNW,289,4.0,4.0,72,0.00,,,0.00,Wunderground v.1.15,2013-11-23 10:04:00,
2013-11-23 05:10:00,38.7,30.4,30.14,WNW,300,3.0,4.0,72,0.00,,,0.00,Wunderground v.1.15,2013-11-23 10:10:00,
2013-11-23 05:16:00,38.8,30.5,30.14,WNW,296,4.0,10.0,72,0.00,,,0.00,Wunderground v.1.15,2013-11-23 10:16:00,
2013-11-23 05:21:00,38.7,30.1,30.14,NW,315,3.0,4.0,71,0.00,,,0.00,Wunderground v.1.15,2013-11-23 10:21:00,
2013-11-23 05:27:00,38.7,30.1,30.15,WNW,298,2.0,4.0,71,0.00,,,0.00,Wunderground v.1.15,2013-11-23 10:27:00,
2013-11-23 05:34:00,38.4,29.8,30.15,WNW,298,1.0,2.0,71,0.00,,,0.00,Wunderground v.1.15,2013-11-23 10:34:00,
2013-11-23 05:40:00,37.9,29.3,30.15,WNW,293,1.0,2.0,71,0.00,,,0.00,Wunderground v.1.15,2013-11-23 10:40:00,
2013-11-23 05:45:00,37.8,29.2,30.16,WNW,293,1.0,5.0,71,0.00,,,0.00,Wunderground v.1.15,2013-11-23 10:45:00,
2013-11-23 05:51:00,37.7,29.1,30.16,WNW,293,1.0,1.0,71,0.00,,,0.00,Wunderground v.1.15,2013-11-23 10:51:00,
2013-11-23 05:56:00,37.7,29.1,30.16,WNW,289,1.0,1.0,71,0.00,,,0.00,Wunderground v.1.15,2013-11-23 10:56:00,
2013-11-23 06:01:00,37.7,29.1,30.16,WNW,289,1.0,2.0,71,0.00,,,0.00,Wunderground v.1.15,2013-11-23 11:01:00,
2013-11-23 06:06:00,37.7,28.8,30.16,WNW,289,0.0,2.0,70,0.00,,,0.00,Wunderground v.1.15,2013-11-23 11:06:00,
2013-11-23 06:12:00,37.4,28.5,30.16,WNW,300,1.0,1.0,70,0.00,,,0.00,Wunderground v.1.15,2013-11-23 11:12:00,
2013-11-23 06:17:00,37.0,28.5,30.16,NW,306,1.0,1.0,71,0.00,,,0.00,Wunderground v.1.15,2013-11-23 11:17:00,
2013-11-23 06:22:00,36.5,28.0,30.16,West,279,1.0,6.0,71,0.00,,,0.00,Wunderground v.1.15,2013-11-23 11:22:00,
2013-11-23 06:28:00,36.4,28.2,30.16,WNW,296,2.0,6.0,72,0.00,,,0.00,Wunderground v.1.15,2013-11-23 11:28:00,
2013-11-23 06:37:00,36.2,28.0,30.16,NW,314,2.0,3.0,72,0.00,,,0.00,Wunderground v.1.15,2013-11-23 11:37:00,
2013-11-23 06:44:00,36.0,27.8,30.17,NW,304,2.0,6.0,72,0.00,,,0.00,Wunderground v.1.15,2013-11-23 11:44:00,
2013-11-23 06:50:00,36.1,27.9,30.17,WNW,300,2.0,6.0,72,0.00,,,0.00,Wunderground v.1.15,2013-11-23 11:50:00,
2013-11-23 06:55:00,36.1,27.9,30.17,WNW,300,3.0,4.0,72,0.00,,,0.00,Wunderground v.1.15,2013-11-23 11:55:00,
2013-11-23 07:01:00,35.9,27.7,30.16,WNW,296,4.0,5.0,72,0.00,,,0.00,Wunderground v.1.15,2013-11-23 12:01:00,
2013-11-23 07:07:00,36.1,27.6,30.16,WNW,300,5.0,11.0,71,0.00,,,0.00,Wunderground v.1.15,2013-11-23 12:07:00,
2013-11-23 07:12:00,36.0,27.5,30.16,WNW,303,5.0,6.0,71,0.00,,,0.00,Wunderground v.1.15,2013-11-23 12:12:00,
2013-11-23 07:17:00,35.9,27.4,30.16,WNW,282,5.0,9.0,71,0.00,,,0.00,Wunderground v.1.15,2013-11-23 12:17:00,
2013-11-23 07:24:00,35.9,27.1,30.16,NW,304,6.0,6.0,70,0.00,,,0.00,Wunderground v.1.15,2013-11-23 12:24:00,
2013-11-23 07:31:00,36.2,27.4,30.16,NW,309,5.0,11.0,70,0.00,,,0.00,Wunderground v.1.15,2013-11-23 12:31:00,
2013-11-23 07:37:00,36.4,27.2,30.17,WNW,301,6.0,11.0,69,0.00,,,0.00,Wunderground v.1.15,2013-11-23 12:37:00,
2013-11-23 07:44:00,36.5,27.3,30.16,NW,315,6.0,7.0,69,0.00,,,0.00,Wunderground v.1.15,2013-11-23 12:44:00,
2013-11-23 07:49:00,36.7,27.5,30.16,NW,326,5.0,8.0,69,0.00,,,0.00,Wunderground v.1.15,2013-11-23 12:49:00,
2013-11-23 07:55:00,36.8,27.2,30.16,WNW,290,5.0,12.0,68,0.00,,,0.00,Wunderground v.1.15,2013-11-23 12:55:00,
2013-11-23 08:01:00,36.9,27.7,30.16,NW,319,5.0,5.0,69,0.00,,,0.00,Wunderground v.1.15,2013-11-23 13:01:00,
2013-11-23 08:07:00,37.1,27.5,30.16,WNW,288,5.0,5.0,68,0.00,,,0.00,Wunderground v.1.15,2013-11-23 13:07:00,
2013-11-23 08:14:00,37.5,27.9,30.17,WNW,286,5.0,6.0,68,0.00,,,0.00,Wunderground v.1.15,2013-11-23 13:14:00,
2013-11-23 08:19:00,37.7,27.7,30.17,WNW,289,4.0,8.0,67,0.00,,,0.00,Wunderground v.1.15,2013-11-23 13:19:00,
2013-11-23 08:24:00,38.0,28.0,30.17,NW,313,5.0,6.0,67,0.00,,,0.00,Wunderground v.1.15,2013-11-23 13:24:00,
2013-11-23 08:29:00,38.3,27.9,30.17,West,271,5.0,7.0,66,0.00,,,0.00,Wunderground v.1.15,2013-11-23 13:29:00,
2013-11-23 08:34:00,38.6,28.2,30.17,WNW,286,5.0,9.0,66,0.00,,,0.00,Wunderground v.1.15,2013-11-23 13:34:00,
2013-11-23 08:40:00,38.8,28.0,30.16,WNW,286,6.0,9.0,65,0.00,,,0.00,Wunderground v.1.15,2013-11-23 13:40:00,
2013-11-23 08:45:00,39.1,28.3,30.17,West,279,6.0,9.0,65,0.00,,,0.00,Wunderground v.1.15,2013-11-23 13:45:00,
2013-11-23 08:52:00,39.2,28.0,30.17,West,273,8.0,8.0,64,0.00,,,0.00,Wunderground v.1.15,2013-11-23 13:52:00,
2013-11-23 08:57:00,39.6,28.0,30.16,West,279,10.0,13.0,63,0.00,,,0.00,Wunderground v.1.15,2013-11-23 13:57:00,
2013-11-23 09:04:00,39.9,27.9,30.16,NW,307,10.0,15.0,62,0.00,,,0.00,Wunderground v.1.15,2013-11-23 14:04:00,
2013-11-23 09:09:00,40.0,27.6,30.16,West,262,10.0,15.0,61,0.00,,,0.00,Wunderground v.1.15,2013-11-23 14:09:00,
2013-11-23 09:16:00,39.7,26.9,30.16,WNW,293,11.0,17.0,60,0.00,,,0.00,Wunderground v.1.15,2013-11-23 14:16:00,
2013-11-23 09:21:00,40.1,27.7,30.16,West,265,10.0,11.0,61,0.00,,,0.00,Wunderground v.1.15,2013-11-23 14:21:00,
2013-11-23 09:26:00,40.2,27.4,30.16,WNW,282,10.0,11.0,60,0.00,,,0.00,Wunderground v.1.15,2013-11-23 14:26:00,
2013-11-23 09:32:00,40.3,27.5,30.16,WNW,290,9.0,11.0,60,0.00,,,0.00,Wunderground v.1.15,2013-11-23 14:32:00,
2013-11-23 09:37:00,40.8,28.0,30.16,WNW,287,7.0,11.0,60,0.00,,,0.00,Wunderground v.1.15,2013-11-23 14:37:00,
2013-11-23 09:42:00,40.6,26.5,30.16,WNW,287,8.0,12.0,57,0.00,,,0.00,Wunderground v.1.15,2013-11-23 14:42:00,
2013-11-23 09:49:00,40.1,26.9,30.16,WNW,291,11.0,16.0,59,0.00,,,0.00,Wunderground v.1.15,2013-11-23 14:49:00,
2013-11-23 09:54:00,40.6,27.0,30.16,West,268,11.0,14.0,58,0.00,,,0.00,Wunderground v.1.15,2013-11-23 14:54:00,
2013-11-23 09:59:00,40.0,26.8,30.16,WNW,286,11.0,15.0,59,0.00,,,0.00,Wunderground v.1.15,2013-11-23 14:59:00,
2013-11-23 10:05:00,40.9,28.1,30.15,WNW,298,10.0,11.0,60,0.00,,,0.00,Wunderground v.1.15,2013-11-23 15:05:00,
2013-11-23 10:11:00,40.9,26.8,30.15,West,280,10.0,10.0,57,0.00,,,0.00,Wunderground v.1.15,2013-11-23 15:11:00,
2013-11-23 10:16:00,41.5,27.8,30.16,WNW,288,10.0,12.0,58,0.00,,,0.00,Wunderground v.1.15,2013-11-23 15:16:00,
2013-11-23 10:21:00,41.5,27.4,30.16,West,265,11.0,13.0,57,0.00,,,0.00,Wunderground v.1.15,2013-11-23 15:21:00,
2013-11-23 10:27:00,41.0,26.5,30.15,West,273,12.0,17.0,56,0.00,,,0.00,Wunderground v.1.15,2013-11-23 15:27:00,
2013-11-23 10:32:00,41.0,26.9,30.16,West,265,11.0,13.0,57,0.00,,,0.00,Wunderground v.1.15,2013-11-23 15:32:00,
2013-11-23 10:37:00,41.2,27.5,30.15,NW,309,11.0,14.0,58,0.00,,,0.00,Wunderground v.1.15,2013-11-23 15:37:00,
2013-11-23 10:43:00,40.8,26.3,30.15,WNW,293,10.0,16.0,56,0.00,,,0.00,Wunderground v.1.15,2013-11-23 15:43:00,
2013-11-23 10:49:00,41.4,26.4,30.15,WNW,302,10.0,16.0,55,0.00,,,0.00,Wunderground v.1.15,2013-11-23 15:49:00,
2013-11-23 10:55:00,42.0,27.0,30.15,WNW,284,9.0,10.0,55,0.00,,,0.00,Wunderground v.1.15,2013-11-23 15:55:00,
2013-11-23 11:01:00,42.5,27.5,30.15,WSW,250,7.0,7.0,55,0.00,,,0.00,Wunderground v.1.15,2013-11-23 16:01:00,
2013-11-23 11:07:00,43.2,28.1,30.14,WNW,286,6.0,7.0,55,0.00,,,0.00,Wunderground v.1.15,2013-11-23 16:07:00,
2013-11-23 11:12:00,43.9,27.4,30.14,WNW,283,6.0,7.0,52,0.00,,,0.00,Wunderground v.1.15,2013-11-23 16:12:00,
2013-11-23 11:17:00,44.2,27.7,30.13,WNW,296,8.0,13.0,52,0.00,,,0.00,Wunderground v.1.15,2013-11-23 16:17:00,
2013-11-23 11:25:00,45.3,27.7,30.13,West,265,7.0,8.0,50,0.00,,,0.00,Wunderground v.1.15,2013-11-23 16:25:00,
2013-11-23 11:31:00,45.4,27.3,30.14,NW,316,8.0,8.0,49,0.00,,,0.00,Wunderground v.1.15,2013-11-23 16:31:00,
2013-11-23 11:36:00,44.9,27.4,30.13,WNW,290,8.0,11.0,50,0.00,,,0.00,Wunderground v.1.15,2013-11-23 16:36:00,
2013-11-23 11:41:00,45.5,27.4,30.13,NNW,344,7.0,7.0,49,0.00,,,0.00,Wunderground v.1.15,2013-11-23 16:41:00,
2013-11-23 11:46:00,45.4,27.8,30.12,West,277,8.0,10.0,50,0.00,,,0.00,Wunderground v.1.15,2013-11-23 16:46:00,
2013-11-23 11:52:00,45.8,28.2,30.11,West,264,8.0,12.0,50,0.00,,,0.00,Wunderground v.1.15,2013-11-23 16:52:00,
2013-11-23 11:58:00,46.0,28.4,30.11,WNW,298,7.0,12.0,50,0.00,,,0.00,Wunderground v.1.15,2013-11-23 16:58:00,
2013-11-23 12:08:00,45.4,27.8,30.11,WNW,289,6.0,10.0,50,0.00,,,0.00,Wunderground v.1.15,2013-11-23 17:08:00,
2013-11-23 12:14:00,44.9,27.4,30.11,West,278,7.0,9.0,50,0.00,,,0.00,Wunderground v.1.15,2013-11-23 17:14:00,
2013-11-23 12:19:00,43.9,26.9,30.10,West,260,6.0,11.0,51,0.00,,,0.00,Wunderground v.1.15,2013-11-23 17:19:00,
2013-11-23 12:24:00,43.4,27.4,30.10,NW,307,5.0,8.0,53,0.00,,,0.00,Wunderground v.1.15,2013-11-23 17:24:00,
2013-11-23 12:31:00,43.4,27.4,30.09,West,278,5.0,9.0,53,0.00,,,0.00,Wunderground v.1.15,2013-11-23 17:31:00,
2013-11-23 12:36:00,43.2,26.7,30.08,West,281,6.0,11.0,52,0.00,,,0.00,Wunderground v.1.15,2013-11-23 17:36:00,
2013-11-23 12:41:00,43.4,27.8,30.08,WNW,302,7.0,7.0,54,0.00,,,0.00,Wunderground v.1.15,2013-11-23 17:41:00,
2013-11-23 12:46:00,44.2,28.1,30.08,WNW,282,6.0,9.0,53,0.00,,,0.00,Wunderground v.1.15,2013-11-23 17:46:00,
2013-11-23 12:52:00,44.4,27.4,30.07,WNW,291,5.0,8.0,51,0.00,,,0.00,Wunderground v.1.15,2013-11-23 17:52:00,
2013-11-23 12:59:00,44.3,27.3,30.07,NW,315,6.0,8.0,51,0.00,,,0.00,Wunderground v.1.15,2013-11-23 17:59:00,
2013-11-23 13:07:00,44.5,26.0,30.07,West,278,8.0,9.0,48,0.00,,,0.00,Wunderground v.1.15,2013-11-23 18:07:00,
2013-11-23 13:12:00,43.7,26.3,30.07,WSW,248,9.0,14.0,50,0.00,,,0.00,Wunderground v.1.15,2013-11-23 18:12:00,
2013-11-23 13:17:00,43.6,25.7,30.07,West,279,9.0,14.0,49,0.00,,,0.00,Wunderground v.1.15,2013-11-23 18:17:00,
2013-11-23 13:25:00,44.0,26.0,30.06,NW,315,6.0,9.0,49,0.00,,,0.00,Wunderground v.1.15,2013-11-23 18:25:00,
2013-11-23 13:32:00,44.0,26.5,30.06,West,274,7.0,7.0,50,0.00,,,0.00,Wunderground v.1.15,2013-11-23 18:32:00,
2013-11-23 13:37:00,44.0,26.5,30.06,WSW,248,7.0,10.0,50,0.00,,,0.00,Wunderground v.1.15,2013-11-23 18:37:00,
2013-11-23 13:42:00,44.4,26.9,30.06,WNW,284,6.0,7.0,50,0.00,,,0.00,Wunderground v.1.15,2013-11-23 18:42:00,
2013-11-23 13:47:00,44.9,26.9,30.05,WNW,292,6.0,8.0,49,0.00,,,0.00,Wunderground v.1.15,2013-11-23 18:47:00,
2013-11-23 13:52:00,44.4,25.4,30.05,West,261,7.0,12.0,47,0.00,,,0.00,Wunderground v.1.15,2013-11-23 18:52:00,
2013-11-23 13:58:00,44.6,25.6,30.05,WNW,292,7.0,12.0,47,0.00,,,0.00,Wunderground v.1.15,2013-11-23 18:58:00,
2013-11-23 14:04:00,43.8,24.3,30.05,West,267,9.0,11.0,46,0.00,,,0.00,Wunderground v.1.15,2013-11-23 19:04:00,
2013-11-23 14:12:00,42.7,24.4,30.05,WNW,286,9.0,9.0,48,0.00,,,0.00,Wunderground v.1.15,2013-11-23 19:12:00,
2013-11-23 14:19:00,42.4,24.1,30.05,West,278,9.0,15.0,48,0.00,,,0.00,Wunderground v.1.15,2013-11-23 19:19:00,
2013-11-23 14:24:00,42.3,24.5,30.05,WSW,257,9.0,9.0,49,0.00,,,0.00,Wunderground v.1.15,2013-11-23 19:24:00,
2013-11-23 14:29:00,42.5,24.7,30.05,West,279,8.0,9.0,49,0.00,,,0.00,Wunderground v.1.15,2013-11-23 19:29:00,
2013-11-23 14:39:00,42.6,24.3,30.05,WNW,296,8.0,9.0,48,0.00,,,0.00,Wunderground v.1.15,2013-11-23 19:39:00,
2013-11-23 14:44:00,42.4,24.1,30.04,WNW,289,9.0,12.0,48,0.00,,,0.00,Wunderground v.1.15,2013-11-23 19:44:00,
2013-11-23 14:49:00,42.7,24.4,30.05,WNW,286,8.0,12.0,48,0.00,,,0.00,Wunderground v.1.15,2013-11-23 19:49:00,
2013-11-23 14:57:00,43.3,24.9,30.04,West,268,7.0,12.0,48,0.00,,,0.00,Wunderground v.1.15,2013-11-23 19:57:00,
2013-11-23 15:04:00,43.0,24.6,30.04,NW,311,7.0,10.0,48,0.00,,,0.00,Wunderground v.1.15,2013-11-23 20:04:00,
2013-11-23 15:09:00,42.3,24.0,30.05,West,259,8.0,15.0,48,0.00,,,0.00,Wunderground v.1.15,2013-11-23 20:09:00,
2013-11-23 15:14:00,42.2,23.4,30.05,West,281,10.0,13.0,47,0.00,,,0.00,Wunderground v.1.15,2013-11-23 20:14:00,
2013-11-23 15:19:00,42.0,23.7,30.04,West,275,9.0,13.0,48,0.00,,,0.00,Wunderground v.1.15,2013-11-23 20:19:00,
2013-11-23 15:25:00,41.6,23.8,30.04,WNW,288,8.0,11.0,49,0.00,,,0.00,Wunderground v.1.15,2013-11-23 20:25:00,
2013-11-23 15:31:00,41.4,23.6,30.05,West,279,8.0,8.0,49,0.00,,,0.00,Wunderground v.1.15,2013-11-23 20:31:00,
2013-11-23 15:38:00,41.8,24.0,30.05,WNW,282,7.0,11.0,49,0.00,,,0.00,Wunderground v.1.15,2013-11-23 20:38:00,
2013-11-23 15:44:00,41.8,24.0,30.05,NW,313,7.0,13.0,49,0.00,,,0.00,Wunderground v.1.15,2013-11-23 20:44:00,
2013-11-23 15:49:00,41.5,23.7,30.05,WNW,288,7.0,13.0,49,0.00,,,0.00,Wunderground v.1.15,2013-11-23 20:49:00,
2013-11-23 15:54:00,41.2,23.9,30.05,West,280,7.0,8.0,50,0.00,,,0.00,Wunderground v.1.15,2013-11-23 20:54:00,
2013-11-23 15:59:00,41.1,23.9,30.05,West,281,6.0,9.0,50,0.00,,,0.00,Wunderground v.1.15,2013-11-23 20:59:00,
2013-11-23 16:04:00,41.0,23.3,30.05,West,274,5.0,9.0,49,0.00,,,0.00,Wunderground v.1.15,2013-11-23 21:04:00,
2013-11-23 16:09:00,41.0,21.8,30.05,WNW,291,7.0,9.0,46,0.00,,,0.00,Wunderground v.1.15,2013-11-23 21:09:00,
2013-11-23 16:16:00,40.7,21.0,30.06,WNW,296,7.0,13.0,45,0.00,,,0.00,Wunderground v.1.15,2013-11-23 21:16:00,
2013-11-23 16:21:00,40.4,20.7,30.07,WNW,287,8.0,14.0,45,0.00,,,0.00,Wunderground v.1.15,2013-11-23 21:21:00,
2013-11-23 16:26:00,40.2,20.5,30.07,West,259,9.0,15.0,45,0.00,,,0.00,Wunderground v.1.15,2013-11-23 21:26:00,
2013-11-23 16:32:00,39.8,20.7,30.07,NW,310,9.0,10.0,46,0.00,,,0.00,Wunderground v.1.15,2013-11-23 21:32:00,
2013-11-23 16:38:00,39.4,20.3,30.07,West,279,6.0,10.0,46,0.00,,,0.00,Wunderground v.1.15,2013-11-23 21:38:00,
2013-11-23 16:44:00,39.3,20.2,30.07,WNW,294,6.0,9.0,46,0.00,,,0.00,Wunderground v.1.15,2013-11-23 21:44:00,
2013-11-23 16:51:00,39.2,19.6,30.07,WNW,284,9.0,9.0,45,0.00,,,0.00,Wunderground v.1.15,2013-11-23 21:51:00,
2013-11-23 16:57:00,38.9,19.9,30.08,WNW,284,6.0,9.0,46,0.00,,,0.00,Wunderground v.1.15,2013-11-23 21:57:00,
2013-11-23 17:02:00,38.8,19.8,30.08,WNW,288,7.0,11.0,46,0.00,,,0.00,Wunderground v.1.15,2013-11-23 22:02:00,
2013-11-23 17:07:00,38.6,19.6,30.08,WNW,283,7.0,11.0,46,0.00,,,0.00,Wunderground v.1.15,2013-11-23 22:07:00,
2013-11-23 17:13:00,38.3,19.8,30.08,WNW,284,6.0,9.0,47,0.00,,,0.00,Wunderground v.1.15,2013-11-23 22:13:00,
2013-11-23 17:19:00,38.5,19.5,30.08,WNW,292,7.0,10.0,46,0.00,,,0.00,Wunderground v.1.15,2013-11-23 22:19:00,
2013-11-23 17:24:00,38.4,19.9,30.08,West,279,7.0,7.0,47,0.00,,,0.00,Wunderground v.1.15,2013-11-23 22:24:00,
2013-11-23 17:31:00,38.4,19.9,30.08,West,265,6.0,7.0,47,0.00,,,0.00,Wunderground v.1.15,2013-11-23 22:31:00,
2013-11-23 17:36:00,38.1,19.6,30.08,WNW,290,6.0,10.0,47,0.00,,,0.00,Wunderground v.1.15,2013-11-23 22:36:00,
2013-11-23 17:42:00,37.9,19.4,30.08,West,281,5.0,9.0,47,0.00,,,0.00,Wunderground v.1.15,2013-11-23 22:42:00,
2013-11-23 17:47:00,38.0,19.5,30.08,WNW,289,5.0,9.0,47,0.00,,,0.00,Wunderground v.1.15,2013-11-23 22:47:00,
2013-11-23 17:53:00,38.0,19.5,30.08,West,262,5.0,11.0,47,0.00,,,0.00,Wunderground v.1.15,2013-11-23 22:53:00,
2013-11-23 17:59:00,38.3,19.8,30.08,West,264,7.0,12.0,47,0.00,,,0.00,Wunderground v.1.15,2013-11-23 22:59:00,
2013-11-23 18:04:00,38.3,20.3,30.09,West,259,10.0,13.0,48,0.00,,,0.00,Wunderground v.1.15,2013-11-23 23:04:00,
2013-11-23 18:10:00,38.0,21.5,30.09,NW,306,9.0,9.0,51,0.00,,,0.00,Wunderground v.1.15,2013-11-23 23:10:00,
2013-11-23 18:15:00,37.4,22.7,30.09,WNW,297,9.0,17.0,55,0.00,,,0.00,Wunderground v.1.15,2013-11-23 23:15:00,
2013-11-23 18:17:00,37.1,22.8,30.09,West,276,9.0,17.0,56,0.00,,,0.00,Wunderground v.1.15,2013-11-23 23:17:00,
2013-11-23 18:24:00,36.5,22.7,30.09,WNW,284,8.0,10.0,57,0.00,,,0.00,Wunderground v.1.15,2013-11-23 23:24:00,
2013-11-23 18:29:00,36.4,23.0,30.09,WNW,292,7.0,11.0,58,0.00,,,0.00,Wunderground v.1.15,2013-11-23 23:29:00,
2013-11-23 18:35:00,36.6,22.8,30.09,WNW,300,8.0,9.0,57,0.00,,,0.00,Wunderground v.1.15,2013-11-23 23:35:00,
2013-11-23 18:40:00,36.8,22.1,30.09,NW,309,9.0,12.0,55,0.00,,,0.00,Wunderground v.1.15,2013-11-23 23:40:00,
2013-11-23 18:46:00,37.0,21.9,30.09,WNW,290,10.0,15.0,54,0.00,,,0.00,Wunderground v.1.15,2013-11-23 23:46:00,
2013-11-23 18:51:00,37.1,22.0,30.10,WNW,288,10.0,10.0,54,0.00,,,0.00,Wunderground v.1.15,2013-11-23 23:51:00,
2013-11-23 18:56:00,37.0,21.4,30.10,West,273,11.0,15.0,53,0.00,,,0.00,Wunderground v.1.15,2013-11-23 23:56:00,
2013-11-23 19:01:00,37.0,21.9,30.10,West,276,10.0,11.0,54,0.00,,,0.00,Wunderground v.1.15,2013-11-24 00:01:00,
2013-11-23 19:06:00,36.7,22.0,30.11,NW,316,9.0,13.0,55,0.00,,,0.00,Wunderground v.1.15,2013-11-24 00:06:00,
2013-11-23 19:11:00,36.2,22.4,30.11,NW,325,9.0,9.0,57,0.00,,,0.00,Wunderground v.1.15,2013-11-24 00:11:00,
2013-11-23 19:17:00,35.6,22.3,30.12,WNW,284,8.0,10.0,58,0.00,,,0.00,Wunderground v.1.15,2013-11-24 00:17:00,
2013-11-23 19:22:00,35.5,22.2,30.12,WNW,292,8.0,10.0,58,0.00,,,0.00,Wunderground v.1.15,2013-11-24 00:22:00,
2013-11-23 19:29:00,35.4,22.1,30.12,West,272,8.0,10.0,58,0.00,,,0.00,Wunderground v.1.15,2013-11-24 00:29:00,
2013-11-23 19:34:00,35.3,22.0,30.12,West,265,7.0,11.0,58,0.00,,,0.00,Wunderground v.1.15,2013-11-24 00:34:00,
2013-11-23 19:40:00,35.1,22.2,30.12,WNW,289,6.0,11.0,59,0.00,,,0.00,Wunderground v.1.15,2013-11-24 00:40:00,
2013-11-23 19:46:00,34.8,21.9,30.13,WNW,287,6.0,11.0,59,0.00,,,0.00,Wunderground v.1.15,2013-11-24 00:46:00,
2013-11-23 19:51:00,34.4,22.3,30.13,WNW,285,7.0,7.0,61,0.00,,,0.00,Wunderground v.1.15,2013-11-24 00:51:00,
2013-11-23 19:56:00,34.3,21.8,30.13,WNW,293,7.0,8.0,60,0.00,,,0.00,Wunderground v.1.15,2013-11-24 00:56:00,
2013-11-23 20:02:00,34.4,21.9,30.13,WNW,299,8.0,15.0,60,0.00,,,0.00,Wunderground v.1.15,2013-11-24 01:02:00,
2013-11-23 20:07:00,34.6,21.7,30.13,WNW,285,8.0,15.0,59,0.00,,,0.00,Wunderground v.1.15,2013-11-24 01:07:00,
2013-11-23 20:13:00,33.0,25.3,30.14,NW,325,7.0,8.0,73,0.00,,,0.00,Wunderground v.1.15,2013-11-24 01:13:00,
2013-11-23 20:19:00,31.2,25.4,30.14,NW,308,6.0,8.0,79,0.00,,,0.00,Wunderground v.1.15,2013-11-24 01:19:00,
2013-11-23 20:24:00,31.1,24.7,30.14,WNW,300,6.0,12.0,77,0.00,,,0.00,Wunderground v.1.15,2013-11-24 01:24:00,
2013-11-23 20:31:00,31.1,24.1,30.15,WNW,300,8.0,12.0,75,0.00,,,0.00,Wunderground v.1.15,2013-11-24 01:31:00,
2013-11-23 20:36:00,31.2,23.9,30.15,WNW,296,8.0,8.0,74,0.00,,,0.00,Wunderground v.1.15,2013-11-24 01:36:00,
2013-11-23 20:41:00,31.3,23.6,30.15,NW,308,7.0,7.0,73,0.00,,,0.00,Wunderground v.1.15,2013-11-24 01:41:00,
2013-11-23 20:46:00,31.5,23.5,30.15,WNW,284,6.0,8.0,72,0.00,,,0.00,Wunderground v.1.15,2013-11-24 01:46:00,
2013-11-23 20:51:00,31.7,23.4,30.15,NW,312,5.0,6.0,71,0.00,,,0.00,Wunderground v.1.15,2013-11-24 01:51:00,
2013-11-23 20:57:00,31.5,23.5,30.16,NW,304,4.0,6.0,72,0.00,,,0.00,Wunderground v.1.15,2013-11-24 01:57:00,
2013-11-23 21:06:00,31.2,22.5,30.17,WNW,294,5.0,6.0,70,0.00,,,0.00,Wunderground v.1.15,2013-11-24 02:06:00,
2013-11-23 21:12:00,31.1,22.5,30.17,WNW,300,5.0,5.0,70,0.00,,,0.00,Wunderground v.1.15,2013-11-24 02:12:00,
2013-11-23 21:17:00,31.0,22.0,30.17,NW,315,5.0,9.0,69,0.00,,,0.00,Wunderground v.1.15,2013-11-24 02:17:00,
2013-11-23 21:22:00,30.8,21.8,30.17,NW,318,5.0,8.0,69,0.00,,,0.00,Wunderground v.1.15,2013-11-24 02:22:00,
2013-11-23 21:28:00,30.5,21.5,30.17,NNW,331,6.0,11.0,69,0.00,,,0.00,Wunderground v.1.15,2013-11-24 02:28:00,
2013-11-23 21:34:00,30.1,21.5,30.17,NNW,327,6.0,7.0,70,0.00,,,0.00,Wunderground v.1.15,2013-11-24 02:34:00,
2013-11-23 21:40:00,29.9,22.0,30.17,NW,308,6.0,7.0,72,0.00,,,0.00,Wunderground v.1.15,2013-11-24 02:40:00,
2013-11-23 21:46:00,30.1,22.2,30.17,WNW,294,7.0,9.0,72,0.00,,,0.00,Wunderground v.1.15,2013-11-24 02:46:00,
2013-11-23 21:51:00,30.2,22.3,30.17,NW,319,5.0,6.0,72,0.00,,,0.00,Wunderground v.1.15,2013-11-24 02:51:00,
2013-11-23 21:57:00,30.0,22.4,30.17,WNW,296,4.0,6.0,73,0.00,,,0.00,Wunderground v.1.15,2013-11-24 02:57:00,
2013-11-23 22:04:00,29.9,22.3,30.18,WNW,295,5.0,8.0,73,0.00,,,0.00,Wunderground v.1.15,2013-11-24 03:04:00,
2013-11-23 22:09:00,29.7,20.1,30.18,NW,325,5.0,8.0,67,0.00,,,0.00,Wunderground v.1.15,2013-11-24 03:09:00,
2013-11-23 22:14:00,29.6,17.8,30.19,NNW,330,6.0,9.0,61,0.00,,,0.00,Wunderground v.1.15,2013-11-24 03:14:00,
2013-11-23 22:20:00,29.4,16.8,30.19,WNW,286,8.0,8.0,59,0.00,,,0.00,Wunderground v.1.15,2013-11-24 03:20:00,
2013-11-23 22:25:00,29.2,15.8,30.19,WNW,303,8.0,9.0,57,0.00,,,0.00,Wunderground v.1.15,2013-11-24 03:25:00,
2013-11-23 22:31:00,29.0,15.7,30.20,NW,305,7.0,7.0,57,0.00,,,0.00,Wunderground v.1.15,2013-11-24 03:31:00,
2013-11-23 22:36:00,28.8,15.9,30.20,NW,305,7.0,8.0,58,0.00,,,0.00,Wunderground v.1.15,2013-11-24 03:36:00,
2013-11-23 22:42:00,28.8,15.9,30.20,West,267,7.0,7.0,58,0.00,,,0.00,Wunderground v.1.15,2013-11-24 03:42:00,
2013-11-23 22:47:00,28.8,15.5,30.20,WNW,291,7.0,12.0,57,0.00,,,0.00,Wunderground v.1.15,2013-11-24 03:47:00,
2013-11-23 22:52:00,28.7,15.4,30.20,West,280,6.0,10.0,57,0.00,,,0.00,Wunderground v.1.15,2013-11-24 03:52:00,
2013-11-23 22:57:00,28.7,15.4,30.21,NW,323,7.0,10.0,57,0.00,,,0.00,Wunderground v.1.15,2013-11-24 03:57:00,
2013-11-23 23:02:00,28.6,14.9,30.21,NW,315,8.0,8.0,56,0.00,,,0.00,Wunderground v.1.15,2013-11-24 04:02:00,
2013-11-23 23:08:00,28.6,14.5,30.22,WNW,288,6.0,8.0,55,0.00,,,0.00,Wunderground v.1.15,2013-11-24 04:08:00,
2013-11-23 23:14:00,28.5,13.9,30.22,WNW,296,5.0,5.0,54,0.00,,,0.00,Wunderground v.1.15,2013-11-24 04:14:00,
2013-11-23 23:20:00,28.4,13.4,30.22,WNW,288,6.0,11.0,53,0.00,,,0.00,Wunderground v.1.15,2013-11-24 04:20:00,
2013-11-23 23:27:00,27.7,12.8,30.22,NW,317,7.0,10.0,53,0.00,,,0.00,Wunderground v.1.15,2013-11-24 04:27:00,
2013-11-23 23:34:00,27.4,12.5,30.22,WNW,287,6.0,11.0,53,0.00,,,0.00,Wunderground v.1.15,2013-11-24 04:34:00,
2013-11-23 23:39:00,27.2,13.1,30.23,NW,306,7.0,11.0,55,0.00,,,0.00,Wunderground v.1.15,2013-11-24 04:39:00,
2013-11-23 23:44:00,27.2,13.1,30.23,WNW,290,6.0,9.0,55,0.00,,,0.00,Wunderground v.1.15,2013-11-24 04:44:00,
2013-11-23 23:49:00,27.4,13.7,30.22,WNW,298,6.0,14.0,56,0.00,,,0.00,Wunderground v.1.15,2013-11-24 04:49:00,
2013-11-23 23:55:00,27.4,14.1,30.23,WNW,303,8.0,12.0,57,0.00,,,0.00,Wunderground v.1.15,2013-11-24 04:55:00,